sensor_id;sensor_type;location;lat;lon;timestamp;P1;durP1;ratioP1;P2;durP2;ratioP2
35128;SDS011;21301;43.626;10.580;2024-02-21T00:00:47;18.17;;;11.15;;
35128;SDS011;21301;43.626;10.580;2024-02-21T00:03:13;17.05;;;10.88;;
35128;SDS011;21301;43.626;10.580;2024-02-21T00:05:38;15.68;;;10.52;;
35128;SDS011;21301;43.626;10.580;2024-02-21T00:08:05;18.80;;;10.52;;
35128;SDS011;21301;43.626;10.580;2024-02-21T00:10:31;22.13;;;12.05;;
35128;SDS011;21301;43.626;10.580;2024-02-21T00:12:58;27.40;;;14.15;;
35128;SDS011;21301;43.626;10.580;2024-02-21T00:15:26;23.83;;;11.50;;
35128;SDS011;21301;43.626;10.580;2024-02-21T00:17:52;21.65;;;11.10;;
35128;SDS011;21301;43.626;10.580;2024-02-21T00:20:18;16.58;;;9.68;;
35128;SDS011;21301;43.626;10.580;2024-02-21T00:22:44;14.75;;;9.13;;
35128;SDS011;21301;43.626;10.580;2024-02-21T00:25:10;16.13;;;8.90;;
35128;SDS011;21301;43.626;10.580;2024-02-21T00:27:36;17.85;;;8.82;;
35128;SDS011;21301;43.626;10.580;2024-02-21T00:30:03;14.85;;;8.73;;
35128;SDS011;21301;43.626;10.580;2024-02-21T00:32:30;14.82;;;8.25;;
35128;SDS011;21301;43.626;10.580;2024-02-21T00:34:56;15.63;;;8.98;;
35128;SDS011;21301;43.626;10.580;2024-02-21T00:37:23;15.38;;;8.77;;
35128;SDS011;21301;43.626;10.580;2024-02-21T00:39:49;15.70;;;8.32;;
35128;SDS011;21301;43.626;10.580;2024-02-21T00:42:14;14.27;;;8.77;;
35128;SDS011;21301;43.626;10.580;2024-02-21T00:44:44;17.02;;;8.90;;
35128;SDS011;21301;43.626;10.580;2024-02-21T00:47:10;16.75;;;8.93;;
35128;SDS011;21301;43.626;10.580;2024-02-21T00:49:35;15.75;;;8.68;;
35128;SDS011;21301;43.626;10.580;2024-02-21T00:52:01;15.23;;;9.13;;
35128;SDS011;21301;43.626;10.580;2024-02-21T00:54:27;15.32;;;8.43;;
35128;SDS011;21301;43.626;10.580;2024-02-21T00:56:52;15.48;;;8.77;;
35128;SDS011;21301;43.626;10.580;2024-02-21T00:59:20;13.10;;;8.65;;
35128;SDS011;21301;43.626;10.580;2024-02-21T01:01:45;13.32;;;7.72;;
35128;SDS011;21301;43.626;10.580;2024-02-21T01:04:11;14.40;;;7.85;;
35128;SDS011;21301;43.626;10.580;2024-02-21T01:06:37;12.75;;;7.95;;
35128;SDS011;21301;43.626;10.580;2024-02-21T01:09:02;15.95;;;8.23;;
35128;SDS011;21301;43.626;10.580;2024-02-21T01:11:29;14.30;;;7.97;;
35128;SDS011;21301;43.626;10.580;2024-02-21T01:13:55;10.77;;;6.43;;
35128;SDS011;21301;43.626;10.580;2024-02-21T01:16:20;14.35;;;7.60;;
35128;SDS011;21301;43.626;10.580;2024-02-21T01:18:46;12.85;;;7.07;;
35128;SDS011;21301;43.626;10.580;2024-02-21T01:21:12;13.02;;;7.28;;
35128;SDS011;21301;43.626;10.580;2024-02-21T01:23:37;14.50;;;7.05;;
35128;SDS011;21301;43.626;10.580;2024-02-21T01:26:03;11.48;;;6.80;;
35128;SDS011;21301;43.626;10.580;2024-02-21T01:28:30;12.15;;;7.25;;
35128;SDS011;21301;43.626;10.580;2024-02-21T01:30:58;14.25;;;7.60;;
35128;SDS011;21301;43.626;10.580;2024-02-21T01:33:24;12.43;;;6.95;;
35128;SDS011;21301;43.626;10.580;2024-02-21T01:35:50;9.88;;;6.20;;
35128;SDS011;21301;43.626;10.580;2024-02-21T01:38:15;10.73;;;6.38;;
35128;SDS011;21301;43.626;10.580;2024-02-21T01:40:41;13.90;;;5.93;;
35128;SDS011;21301;43.626;10.580;2024-02-21T01:43:18;10.57;;;6.75;;
35128;SDS011;21301;43.626;10.580;2024-02-21T01:45:46;11.35;;;6.18;;
35128;SDS011;21301;43.626;10.580;2024-02-21T01:48:16;13.15;;;6.35;;
35128;SDS011;21301;43.626;10.580;2024-02-21T01:50:46;12.10;;;6.78;;
35128;SDS011;21301;43.626;10.580;2024-02-21T01:53:14;10.75;;;6.10;;
35128;SDS011;21301;43.626;10.580;2024-02-21T01:55:47;10.80;;;5.85;;
35128;SDS011;21301;43.626;10.580;2024-02-21T01:58:13;10.13;;;5.20;;
35128;SDS011;21301;43.626;10.580;2024-02-21T02:00:43;9.52;;;5.57;;
35128;SDS011;21301;43.626;10.580;2024-02-21T02:03:12;11.35;;;6.45;;
35128;SDS011;21301;43.626;10.580;2024-02-21T02:05:48;13.82;;;5.97;;
35128;SDS011;21301;43.626;10.580;2024-02-21T02:08:15;10.57;;;6.10;;
35128;SDS011;21301;43.626;10.580;2024-02-21T02:10:42;9.43;;;5.30;;
35128;SDS011;21301;43.626;10.580;2024-02-21T02:13:08;10.48;;;5.53;;
35128;SDS011;21301;43.626;10.580;2024-02-21T02:15:52;9.75;;;5.00;;
35128;SDS011;21301;43.626;10.580;2024-02-21T02:18:19;9.52;;;5.07;;
35128;SDS011;21301;43.626;10.580;2024-02-21T02:20:44;8.68;;;4.88;;
35128;SDS011;21301;43.626;10.580;2024-02-21T02:23:11;11.18;;;5.78;;
35128;SDS011;21301;43.626;10.580;2024-02-21T02:25:39;10.50;;;5.40;;
35128;SDS011;21301;43.626;10.580;2024-02-21T02:28:07;8.65;;;4.53;;
35128;SDS011;21301;43.626;10.580;2024-02-21T02:30:34;9.65;;;4.82;;
35128;SDS011;21301;43.626;10.580;2024-02-21T02:33:02;9.63;;;4.65;;
35128;SDS011;21301;43.626;10.580;2024-02-21T02:35:28;8.88;;;4.93;;
35128;SDS011;21301;43.626;10.580;2024-02-21T02:37:54;8.00;;;4.43;;
35128;SDS011;21301;43.626;10.580;2024-02-21T02:40:19;9.10;;;4.70;;
35128;SDS011;21301;43.626;10.580;2024-02-21T02:42:45;8.65;;;4.85;;
35128;SDS011;21301;43.626;10.580;2024-02-21T02:45:12;7.85;;;4.50;;
35128;SDS011;21301;43.626;10.580;2024-02-21T02:47:39;8.10;;;4.95;;
35128;SDS011;21301;43.626;10.580;2024-02-21T02:50:05;9.40;;;4.88;;
35128;SDS011;21301;43.626;10.580;2024-02-21T02:52:31;8.07;;;4.65;;
35128;SDS011;21301;43.626;10.580;2024-02-21T02:54:57;9.98;;;5.22;;
35128;SDS011;21301;43.626;10.580;2024-02-21T02:57:23;10.43;;;5.25;;
35128;SDS011;21301;43.626;10.580;2024-02-21T02:59:49;7.47;;;4.60;;
35128;SDS011;21301;43.626;10.580;2024-02-21T03:02:17;10.18;;;5.20;;
35128;SDS011;21301;43.626;10.580;2024-02-21T03:04:43;8.35;;;4.70;;
35128;SDS011;21301;43.626;10.580;2024-02-21T03:07:09;8.65;;;5.07;;
35128;SDS011;21301;43.626;10.580;2024-02-21T03:09:38;9.65;;;5.45;;
35128;SDS011;21301;43.626;10.580;2024-02-21T03:12:04;8.93;;;5.00;;
35128;SDS011;21301;43.626;10.580;2024-02-21T03:14:31;8.85;;;5.28;;
35128;SDS011;21301;43.626;10.580;2024-02-21T03:16:57;11.52;;;5.05;;
35128;SDS011;21301;43.626;10.580;2024-02-21T03:19:23;7.63;;;4.40;;
35128;SDS011;21301;43.626;10.580;2024-02-21T03:21:50;8.50;;;4.35;;
35128;SDS011;21301;43.626;10.580;2024-02-21T03:24:16;9.80;;;5.07;;
35128;SDS011;21301;43.626;10.580;2024-02-21T03:26:42;9.07;;;4.57;;
35128;SDS011;21301;43.626;10.580;2024-02-21T03:29:07;9.95;;;5.57;;
35128;SDS011;21301;43.626;10.580;2024-02-21T03:31:34;11.02;;;5.20;;
35128;SDS011;21301;43.626;10.580;2024-02-21T03:34:00;8.52;;;4.88;;
35128;SDS011;21301;43.626;10.580;2024-02-21T03:36:27;8.73;;;4.72;;
35128;SDS011;21301;43.626;10.580;2024-02-21T03:38:54;10.00;;;5.03;;
35128;SDS011;21301;43.626;10.580;2024-02-21T03:41:20;15.43;;;6.50;;
35128;SDS011;21301;43.626;10.580;2024-02-21T03:43:45;10.68;;;4.88;;
35128;SDS011;21301;43.626;10.580;2024-02-21T03:46:11;10.93;;;5.20;;
35128;SDS011;21301;43.626;10.580;2024-02-21T03:48:39;9.63;;;6.18;;
35128;SDS011;21301;43.626;10.580;2024-02-21T03:51:05;8.77;;;5.20;;
35128;SDS011;21301;43.626;10.580;2024-02-21T03:53:32;10.45;;;5.13;;
35128;SDS011;21301;43.626;10.580;2024-02-21T03:56:00;9.70;;;4.57;;
35128;SDS011;21301;43.626;10.580;2024-02-21T03:58:28;9.45;;;5.75;;
35128;SDS011;21301;43.626;10.580;2024-02-21T04:00:53;14.73;;;5.90;;
35128;SDS011;21301;43.626;10.580;2024-02-21T04:03:19;10.48;;;5.15;;
35128;SDS011;21301;43.626;10.580;2024-02-21T04:05:45;9.05;;;4.65;;
35128;SDS011;21301;43.626;10.580;2024-02-21T04:08:11;9.63;;;5.05;;
35128;SDS011;21301;43.626;10.580;2024-02-21T04:10:36;7.75;;;4.55;;
35128;SDS011;21301;43.626;10.580;2024-02-21T04:13:02;9.27;;;4.85;;
35128;SDS011;21301;43.626;10.580;2024-02-21T04:15:28;9.30;;;4.78;;
35128;SDS011;21301;43.626;10.580;2024-02-21T04:17:54;8.88;;;4.60;;
35128;SDS011;21301;43.626;10.580;2024-02-21T04:20:20;9.32;;;5.18;;
35128;SDS011;21301;43.626;10.580;2024-02-21T04:22:45;9.15;;;4.68;;
35128;SDS011;21301;43.626;10.580;2024-02-21T04:25:12;7.63;;;4.75;;
35128;SDS011;21301;43.626;10.580;2024-02-21T04:27:38;9.32;;;4.53;;
35128;SDS011;21301;43.626;10.580;2024-02-21T04:30:05;9.55;;;4.55;;
35128;SDS011;21301;43.626;10.580;2024-02-21T04:32:31;11.80;;;5.88;;
35128;SDS011;21301;43.626;10.580;2024-02-21T04:34:57;9.40;;;4.30;;
35128;SDS011;21301;43.626;10.580;2024-02-21T04:37:23;9.07;;;4.90;;
35128;SDS011;21301;43.626;10.580;2024-02-21T04:39:49;7.40;;;4.43;;
35128;SDS011;21301;43.626;10.580;2024-02-21T04:42:16;8.95;;;4.65;;
35128;SDS011;21301;43.626;10.580;2024-02-21T04:44:42;8.88;;;5.18;;
35128;SDS011;21301;43.626;10.580;2024-02-21T04:47:08;10.75;;;5.05;;
35128;SDS011;21301;43.626;10.580;2024-02-21T04:49:34;8.32;;;4.93;;
35128;SDS011;21301;43.626;10.580;2024-02-21T04:52:00;13.45;;;5.18;;
35128;SDS011;21301;43.626;10.580;2024-02-21T04:54:26;10.13;;;4.63;;
35128;SDS011;21301;43.626;10.580;2024-02-21T04:56:52;8.77;;;4.32;;
35128;SDS011;21301;43.626;10.580;2024-02-21T04:59:18;10.07;;;5.72;;
35128;SDS011;21301;43.626;10.580;2024-02-21T05:01:43;8.10;;;4.05;;
35128;SDS011;21301;43.626;10.580;2024-02-21T05:04:09;10.23;;;5.07;;
35128;SDS011;21301;43.626;10.580;2024-02-21T05:06:38;9.98;;;5.45;;
35128;SDS011;21301;43.626;10.580;2024-02-21T05:09:04;8.77;;;4.72;;
35128;SDS011;21301;43.626;10.580;2024-02-21T05:11:30;10.73;;;4.75;;
35128;SDS011;21301;43.626;10.580;2024-02-21T05:13:56;9.90;;;4.57;;
35128;SDS011;21301;43.626;10.580;2024-02-21T05:16:22;9.48;;;4.47;;
35128;SDS011;21301;43.626;10.580;2024-02-21T05:18:48;10.43;;;3.70;;
35128;SDS011;21301;43.626;10.580;2024-02-21T05:21:13;6.63;;;4.03;;
35128;SDS011;21301;43.626;10.580;2024-02-21T05:23:39;6.53;;;3.55;;
35128;SDS011;21301;43.626;10.580;2024-02-21T05:26:06;9.20;;;4.75;;
35128;SDS011;21301;43.626;10.580;2024-02-21T05:28:31;7.88;;;4.05;;
35128;SDS011;21301;43.626;10.580;2024-02-21T05:30:57;8.70;;;4.25;;
35128;SDS011;21301;43.626;10.580;2024-02-21T05:33:23;9.60;;;4.70;;
35128;SDS011;21301;43.626;10.580;2024-02-21T05:35:49;10.52;;;5.10;;
35128;SDS011;21301;43.626;10.580;2024-02-21T05:38:15;15.73;;;4.93;;
35128;SDS011;21301;43.626;10.580;2024-02-21T05:40:41;9.82;;;5.45;;
35128;SDS011;21301;43.626;10.580;2024-02-21T05:43:07;7.28;;;4.75;;
35128;SDS011;21301;43.626;10.580;2024-02-21T05:45:33;7.05;;;3.88;;
35128;SDS011;21301;43.626;10.580;2024-02-21T05:47:59;11.25;;;5.35;;
35128;SDS011;21301;43.626;10.580;2024-02-21T05:50:25;8.30;;;4.10;;
35128;SDS011;21301;43.626;10.580;2024-02-21T05:52:52;8.80;;;4.32;;
35128;SDS011;21301;43.626;10.580;2024-02-21T05:55:21;9.05;;;4.13;;
35128;SDS011;21301;43.626;10.580;2024-02-21T05:57:47;7.70;;;3.50;;
35128;SDS011;21301;43.626;10.580;2024-02-21T06:00:13;8.52;;;4.47;;
35128;SDS011;21301;43.626;10.580;2024-02-21T06:02:38;7.68;;;3.72;;
35128;SDS011;21301;43.626;10.580;2024-02-21T06:05:05;6.95;;;4.50;;
35128;SDS011;21301;43.626;10.580;2024-02-21T06:07:33;10.40;;;4.35;;
35128;SDS011;21301;43.626;10.580;2024-02-21T06:09:59;9.23;;;4.72;;
35128;SDS011;21301;43.626;10.580;2024-02-21T06:12:26;6.90;;;3.60;;
35128;SDS011;21301;43.626;10.580;2024-02-21T06:14:53;14.05;;;3.88;;
35128;SDS011;21301;43.626;10.580;2024-02-21T06:17:18;6.72;;;4.07;;
35128;SDS011;21301;43.626;10.580;2024-02-21T06:19:44;6.90;;;4.22;;
35128;SDS011;21301;43.626;10.580;2024-02-21T06:22:11;11.55;;;5.18;;
35128;SDS011;21301;43.626;10.580;2024-02-21T06:24:37;7.13;;;3.85;;
35128;SDS011;21301;43.626;10.580;2024-02-21T06:27:03;7.22;;;3.22;;
35128;SDS011;21301;43.626;10.580;2024-02-21T06:29:34;8.15;;;4.30;;
35128;SDS011;21301;43.626;10.580;2024-02-21T06:32:00;8.43;;;4.13;;
35128;SDS011;21301;43.626;10.580;2024-02-21T06:34:27;10.63;;;3.53;;
35128;SDS011;21301;43.626;10.580;2024-02-21T06:36:52;9.43;;;3.70;;
35128;SDS011;21301;43.626;10.580;2024-02-21T06:39:18;8.60;;;4.28;;
35128;SDS011;21301;43.626;10.580;2024-02-21T06:41:44;7.75;;;3.67;;
35128;SDS011;21301;43.626;10.580;2024-02-21T06:44:10;11.32;;;3.88;;
35128;SDS011;21301;43.626;10.580;2024-02-21T06:46:35;7.68;;;5.40;;
35128;SDS011;21301;43.626;10.580;2024-02-21T06:49:01;9.25;;;6.75;;
35128;SDS011;21301;43.626;10.580;2024-02-21T06:51:29;8.05;;;6.53;;
35128;SDS011;21301;43.626;10.580;2024-02-21T06:53:55;6.78;;;5.78;;
35128;SDS011;21301;43.626;10.580;2024-02-21T06:56:22;7.55;;;6.55;;
35128;SDS011;21301;43.626;10.580;2024-02-21T06:58:55;8.85;;;7.97;;
35128;SDS011;21301;43.626;10.580;2024-02-21T07:01:21;10.02;;;8.98;;
35128;SDS011;21301;43.626;10.580;2024-02-21T07:03:46;8.68;;;7.45;;
35128;SDS011;21301;43.626;10.580;2024-02-21T07:06:12;10.65;;;8.60;;
35128;SDS011;21301;43.626;10.580;2024-02-21T07:08:38;10.73;;;9.82;;
35128;SDS011;21301;43.626;10.580;2024-02-21T07:11:04;7.32;;;6.63;;
35128;SDS011;21301;43.626;10.580;2024-02-21T07:13:30;8.73;;;7.28;;
35128;SDS011;21301;43.626;10.580;2024-02-21T07:15:56;8.25;;;6.95;;
35128;SDS011;21301;43.626;10.580;2024-02-21T07:18:21;7.78;;;7.07;;
35128;SDS011;21301;43.626;10.580;2024-02-21T07:20:47;6.85;;;5.32;;
35128;SDS011;21301;43.626;10.580;2024-02-21T07:23:13;6.88;;;4.88;;
35128;SDS011;21301;43.626;10.580;2024-02-21T07:25:38;6.05;;;4.18;;
35128;SDS011;21301;43.626;10.580;2024-02-21T07:28:05;8.30;;;4.85;;
35128;SDS011;21301;43.626;10.580;2024-02-21T07:30:31;8.82;;;5.85;;
35128;SDS011;21301;43.626;10.580;2024-02-21T07:32:57;15.05;;;4.95;;
35128;SDS011;21301;43.626;10.580;2024-02-21T07:35:22;7.13;;;4.05;;
35128;SDS011;21301;43.626;10.580;2024-02-21T07:37:49;7.00;;;3.85;;
35128;SDS011;21301;43.626;10.580;2024-02-21T07:40:15;8.27;;;4.20;;
35128;SDS011;21301;43.626;10.580;2024-02-21T07:42:42;8.32;;;3.78;;
35128;SDS011;21301;43.626;10.580;2024-02-21T07:45:08;6.28;;;3.50;;
35128;SDS011;21301;43.626;10.580;2024-02-21T07:47:34;7.45;;;3.78;;
35128;SDS011;21301;43.626;10.580;2024-02-21T07:50:01;8.50;;;3.70;;
35128;SDS011;21301;43.626;10.580;2024-02-21T07:52:29;8.55;;;4.13;;
35128;SDS011;21301;43.626;10.580;2024-02-21T07:54:55;7.25;;;4.07;;
35128;SDS011;21301;43.626;10.580;2024-02-21T07:57:20;9.00;;;3.40;;
35128;SDS011;21301;43.626;10.580;2024-02-21T07:59:47;7.97;;;4.18;;
35128;SDS011;21301;43.626;10.580;2024-02-21T08:02:13;7.57;;;4.18;;
35128;SDS011;21301;43.626;10.580;2024-02-21T08:04:42;8.35;;;4.75;;
35128;SDS011;21301;43.626;10.580;2024-02-21T08:07:08;7.57;;;4.55;;
35128;SDS011;21301;43.626;10.580;2024-02-21T08:09:34;9.90;;;4.85;;
35128;SDS011;21301;43.626;10.580;2024-02-21T08:12:01;9.90;;;5.05;;
35128;SDS011;21301;43.626;10.580;2024-02-21T08:14:27;10.18;;;6.30;;
35128;SDS011;21301;43.626;10.580;2024-02-21T08:16:53;12.00;;;7.60;;
35128;SDS011;21301;43.626;10.580;2024-02-21T08:19:19;14.98;;;6.57;;
35128;SDS011;21301;43.626;10.580;2024-02-21T08:21:45;12.45;;;7.43;;
35128;SDS011;21301;43.626;10.580;2024-02-21T08:24:14;13.48;;;7.65;;
35128;SDS011;21301;43.626;10.580;2024-02-21T08:26:41;12.93;;;8.05;;
35128;SDS011;21301;43.626;10.580;2024-02-21T08:29:07;13.90;;;8.23;;
35128;SDS011;21301;43.626;10.580;2024-02-21T08:31:32;17.60;;;9.27;;
35128;SDS011;21301;43.626;10.580;2024-02-21T08:34:00;16.02;;;9.48;;
35128;SDS011;21301;43.626;10.580;2024-02-21T08:36:32;15.23;;;9.70;;
35128;SDS011;21301;43.626;10.580;2024-02-21T08:38:59;13.48;;;9.32;;
35128;SDS011;21301;43.626;10.580;2024-02-21T08:41:25;18.38;;;10.23;;
35128;SDS011;21301;43.626;10.580;2024-02-21T08:43:51;26.38;;;15.55;;
35128;SDS011;21301;43.626;10.580;2024-02-21T08:46:22;24.52;;;14.40;;
35128;SDS011;21301;43.626;10.580;2024-02-21T08:48:49;28.30;;;18.38;;
35128;SDS011;21301;43.626;10.580;2024-02-21T08:51:19;33.13;;;20.27;;
35128;SDS011;21301;43.626;10.580;2024-02-21T08:53:45;33.28;;;19.80;;
35128;SDS011;21301;43.626;10.580;2024-02-21T08:56:11;29.70;;;19.50;;
35128;SDS011;21301;43.626;10.580;2024-02-21T08:58:38;29.27;;;16.90;;
35128;SDS011;21301;43.626;10.580;2024-02-21T09:01:05;24.70;;;17.67;;
35128;SDS011;21301;43.626;10.580;2024-02-21T09:03:34;26.73;;;16.85;;
35128;SDS011;21301;43.626;10.580;2024-02-21T09:06:01;26.30;;;16.80;;
35128;SDS011;21301;43.626;10.580;2024-02-21T09:08:27;30.70;;;18.33;;
35128;SDS011;21301;43.626;10.580;2024-02-21T09:10:52;30.38;;;19.40;;
35128;SDS011;21301;43.626;10.580;2024-02-21T09:13:18;28.88;;;17.55;;
35128;SDS011;21301;43.626;10.580;2024-02-21T09:15:44;30.92;;;17.92;;
35128;SDS011;21301;43.626;10.580;2024-02-21T09:18:09;22.98;;;14.88;;
35128;SDS011;21301;43.626;10.580;2024-02-21T09:20:35;20.55;;;12.27;;
35128;SDS011;21301;43.626;10.580;2024-02-21T09:23:01;21.75;;;11.35;;
35128;SDS011;21301;43.626;10.580;2024-02-21T09:25:26;16.20;;;10.23;;
35128;SDS011;21301;43.626;10.580;2024-02-21T09:27:53;25.35;;;13.20;;
35128;SDS011;21301;43.626;10.580;2024-02-21T09:30:19;21.02;;;13.65;;
35128;SDS011;21301;43.626;10.580;2024-02-21T09:32:45;19.52;;;12.32;;
35128;SDS011;21301;43.626;10.580;2024-02-21T09:35:11;24.98;;;15.65;;
35128;SDS011;21301;43.626;10.580;2024-02-21T09:37:38;25.30;;;13.75;;
35128;SDS011;21301;43.626;10.580;2024-02-21T09:40:04;26.58;;;15.32;;
35128;SDS011;21301;43.626;10.580;2024-02-21T09:42:40;30.27;;;17.60;;
35128;SDS011;21301;43.626;10.580;2024-02-21T09:45:24;26.58;;;15.55;;
35128;SDS011;21301;43.626;10.580;2024-02-21T09:50:32;22.85;;;13.65;;
35128;SDS011;21301;43.626;10.580;2024-02-21T09:53:01;26.92;;;15.60;;
35128;SDS011;21301;43.626;10.580;2024-02-21T09:55:28;23.52;;;14.73;;
35128;SDS011;21301;43.626;10.580;2024-02-21T09:57:54;22.73;;;14.80;;
35128;SDS011;21301;43.626;10.580;2024-02-21T10:00:23;22.25;;;13.60;;
35128;SDS011;21301;43.626;10.580;2024-02-21T10:02:48;23.23;;;14.32;;
35128;SDS011;21301;43.626;10.580;2024-02-21T10:05:15;24.17;;;14.88;;
35128;SDS011;21301;43.626;10.580;2024-02-21T10:07:43;20.92;;;13.88;;
35128;SDS011;21301;43.626;10.580;2024-02-21T10:10:09;21.13;;;12.95;;
35128;SDS011;21301;43.626;10.580;2024-02-21T10:12:35;23.70;;;12.50;;
35128;SDS011;21301;43.626;10.580;2024-02-21T10:15:12;20.23;;;12.52;;
35128;SDS011;21301;43.626;10.580;2024-02-21T10:17:38;15.77;;;9.65;;
35128;SDS011;21301;43.626;10.580;2024-02-21T10:20:07;14.65;;;9.75;;
35128;SDS011;21301;43.626;10.580;2024-02-21T10:22:37;15.95;;;9.50;;
35128;SDS011;21301;43.626;10.580;2024-02-21T10:25:08;13.23;;;7.72;;
35128;SDS011;21301;43.626;10.580;2024-02-21T10:27:34;13.63;;;8.88;;
35128;SDS011;21301;43.626;10.580;2024-02-21T10:30:01;13.52;;;8.13;;
35128;SDS011;21301;43.626;10.580;2024-02-21T10:32:28;12.98;;;8.48;;
35128;SDS011;21301;43.626;10.580;2024-02-21T10:35:02;17.38;;;8.43;;
35128;SDS011;21301;43.626;10.580;2024-02-21T10:37:31;15.65;;;7.75;;
35128;SDS011;21301;43.626;10.580;2024-02-21T10:39:57;14.48;;;8.48;;
35128;SDS011;21301;43.626;10.580;2024-02-21T10:42:23;13.30;;;7.95;;
35128;SDS011;21301;43.626;10.580;2024-02-21T10:44:56;17.90;;;9.30;;
35128;SDS011;21301;43.626;10.580;2024-02-21T10:47:27;11.10;;;6.95;;
35128;SDS011;21301;43.626;10.580;2024-02-21T10:49:57;15.18;;;8.10;;
35128;SDS011;21301;43.626;10.580;2024-02-21T10:55:55;12.82;;;7.03;;
35128;SDS011;21301;43.626;10.580;2024-02-21T10:58:06;12.27;;;6.82;;
35128;SDS011;21301;43.626;10.580;2024-02-21T11:00:35;11.40;;;7.53;;
35128;SDS011;21301;43.626;10.580;2024-02-21T11:03:02;12.45;;;6.97;;
35128;SDS011;21301;43.626;10.580;2024-02-21T11:05:28;11.18;;;6.53;;
35128;SDS011;21301;43.626;10.580;2024-02-21T11:07:55;13.48;;;6.57;;
35128;SDS011;21301;43.626;10.580;2024-02-21T11:10:24;11.32;;;6.05;;
35128;SDS011;21301;43.626;10.580;2024-02-21T11:12:53;10.43;;;6.10;;
35128;SDS011;21301;43.626;10.580;2024-02-21T11:15:30;10.65;;;6.05;;
35128;SDS011;21301;43.626;10.580;2024-02-21T11:17:56;9.18;;;5.70;;
35128;SDS011;21301;43.626;10.580;2024-02-21T11:20:31;11.05;;;4.85;;
35128;SDS011;21301;43.626;10.580;2024-02-21T11:23:01;10.48;;;5.10;;
35128;SDS011;21301;43.626;10.580;2024-02-21T11:25:27;8.63;;;4.85;;
35128;SDS011;21301;43.626;10.580;2024-02-21T11:28:00;9.90;;;6.07;;
35128;SDS011;21301;43.626;10.580;2024-02-21T11:30:29;9.20;;;4.88;;
35128;SDS011;21301;43.626;10.580;2024-02-21T11:33:00;7.93;;;4.80;;
35128;SDS011;21301;43.626;10.580;2024-02-21T11:35:30;8.93;;;5.15;;
35128;SDS011;21301;43.626;10.580;2024-02-21T11:38:07;7.53;;;4.45;;
35128;SDS011;21301;43.626;10.580;2024-02-21T11:40:40;7.40;;;4.53;;
35128;SDS011;21301;43.626;10.580;2024-02-21T11:43:06;9.18;;;4.38;;
35128;SDS011;21301;43.626;10.580;2024-02-21T11:45:32;7.28;;;4.00;;
35128;SDS011;21301;43.626;10.580;2024-02-21T11:47:59;6.97;;;3.60;;
35128;SDS011;21301;43.626;10.580;2024-02-21T11:50:26;8.40;;;4.25;;
35128;SDS011;21301;43.626;10.580;2024-02-21T11:52:54;9.95;;;3.90;;
35128;SDS011;21301;43.626;10.580;2024-02-21T11:55:20;6.53;;;3.70;;
35128;SDS011;21301;43.626;10.580;2024-02-21T11:57:50;7.63;;;3.63;;
35128;SDS011;21301;43.626;10.580;2024-02-21T12:00:19;8.32;;;4.10;;
35128;SDS011;21301;43.626;10.580;2024-02-21T12:02:49;7.70;;;4.20;;
35128;SDS011;21301;43.626;10.580;2024-02-21T12:05:16;6.90;;;3.42;;
35128;SDS011;21301;43.626;10.580;2024-02-21T12:07:43;5.82;;;3.20;;
35128;SDS011;21301;43.626;10.580;2024-02-21T12:10:10;9.18;;;4.25;;
35128;SDS011;21301;43.626;10.580;2024-02-21T12:12:37;7.28;;;3.17;;
35128;SDS011;21301;43.626;10.580;2024-02-21T12:15:04;8.63;;;3.80;;
35128;SDS011;21301;43.626;10.580;2024-02-21T12:17:32;7.78;;;3.35;;
35128;SDS011;21301;43.626;10.580;2024-02-21T12:20:05;5.00;;;2.40;;
35128;SDS011;21301;43.626;10.580;2024-02-21T12:22:42;5.88;;;2.78;;
35128;SDS011;21301;43.626;10.580;2024-02-21T12:25:21;7.43;;;3.65;;
35128;SDS011;21301;43.626;10.580;2024-02-21T12:27:51;7.40;;;3.42;;
35128;SDS011;21301;43.626;10.580;2024-02-21T12:30:17;5.85;;;3.25;;
35128;SDS011;21301;43.626;10.580;2024-02-21T12:32:46;5.55;;;3.15;;
35128;SDS011;21301;43.626;10.580;2024-02-21T12:35:14;7.15;;;4.10;;
35128;SDS011;21301;43.626;10.580;2024-02-21T12:37:40;7.10;;;3.50;;
35128;SDS011;21301;43.626;10.580;2024-02-21T12:40:06;9.82;;;3.00;;
35128;SDS011;21301;43.626;10.580;2024-02-21T12:42:34;4.97;;;2.40;;
35128;SDS011;21301;43.626;10.580;2024-02-21T12:45:01;6.88;;;3.40;;
35128;SDS011;21301;43.626;10.580;2024-02-21T12:47:28;7.40;;;3.60;;
35128;SDS011;21301;43.626;10.580;2024-02-21T12:49:54;6.68;;;3.47;;
35128;SDS011;21301;43.626;10.580;2024-02-21T12:52:19;3.65;;;1.63;;
35128;SDS011;21301;43.626;10.580;2024-02-21T12:54:45;4.63;;;2.10;;
35128;SDS011;21301;43.626;10.580;2024-02-21T12:57:11;5.95;;;2.60;;
35128;SDS011;21301;43.626;10.580;2024-02-21T12:59:40;4.85;;;2.05;;
35128;SDS011;21301;43.626;10.580;2024-02-21T13:02:05;4.35;;;2.38;;
35128;SDS011;21301;43.626;10.580;2024-02-21T13:04:31;5.47;;;2.72;;
35128;SDS011;21301;43.626;10.580;2024-02-21T13:06:57;5.72;;;2.50;;
35128;SDS011;21301;43.626;10.580;2024-02-21T13:09:22;5.97;;;2.45;;
35128;SDS011;21301;43.626;10.580;2024-02-21T13:11:49;4.47;;;2.50;;
35128;SDS011;21301;43.626;10.580;2024-02-21T13:14:16;3.63;;;1.60;;
35128;SDS011;21301;43.626;10.580;2024-02-21T13:16:41;3.63;;;1.90;;
35128;SDS011;21301;43.626;10.580;2024-02-21T13:19:07;4.32;;;2.15;;
35128;SDS011;21301;43.626;10.580;2024-02-21T13:21:35;5.72;;;2.47;;
35128;SDS011;21301;43.626;10.580;2024-02-21T13:24:01;5.57;;;2.50;;
35128;SDS011;21301;43.626;10.580;2024-02-21T13:26:27;4.22;;;2.10;;
35128;SDS011;21301;43.626;10.580;2024-02-21T13:28:53;7.88;;;2.58;;
35128;SDS011;21301;43.626;10.580;2024-02-21T13:31:19;6.68;;;1.80;;
35128;SDS011;21301;43.626;10.580;2024-02-21T13:33:45;3.97;;;1.75;;
35128;SDS011;21301;43.626;10.580;2024-02-21T13:36:12;4.78;;;1.58;;
35128;SDS011;21301;43.626;10.580;2024-02-21T13:38:38;2.53;;;1.17;;
35128;SDS011;21301;43.626;10.580;2024-02-21T13:41:06;3.38;;;1.55;;
35128;SDS011;21301;43.626;10.580;2024-02-21T13:43:32;3.25;;;1.30;;
35128;SDS011;21301;43.626;10.580;2024-02-21T13:46:00;3.60;;;1.40;;
35128;SDS011;21301;43.626;10.580;2024-02-21T13:48:31;3.20;;;1.27;;
35128;SDS011;21301;43.626;10.580;2024-02-21T13:50:58;2.58;;;1.10;;
35128;SDS011;21301;43.626;10.580;2024-02-21T13:53:25;2.97;;;1.40;;
35128;SDS011;21301;43.626;10.580;2024-02-21T13:55:50;3.25;;;1.23;;
35128;SDS011;21301;43.626;10.580;2024-02-21T13:58:16;4.78;;;1.48;;
35128;SDS011;21301;43.626;10.580;2024-02-21T14:00:42;3.20;;;1.30;;
35128;SDS011;21301;43.626;10.580;2024-02-21T14:03:08;3.28;;;1.50;;
35128;SDS011;21301;43.626;10.580;2024-02-21T14:05:34;2.45;;;1.10;;
35128;SDS011;21301;43.626;10.580;2024-02-21T14:08:00;3.40;;;1.52;;
35128;SDS011;21301;43.626;10.580;2024-02-21T14:10:26;3.25;;;1.20;;
35128;SDS011;21301;43.626;10.580;2024-02-21T14:12:51;3.13;;;1.10;;
35128;SDS011;21301;43.626;10.580;2024-02-21T14:15:17;2.78;;;1.25;;
35128;SDS011;21301;43.626;10.580;2024-02-21T14:17:43;5.95;;;1.60;;
35128;SDS011;21301;43.626;10.580;2024-02-21T14:20:09;3.92;;;1.42;;
35128;SDS011;21301;43.626;10.580;2024-02-21T14:22:35;4.55;;;1.83;;
35128;SDS011;21301;43.626;10.580;2024-02-21T14:25:04;2.97;;;1.30;;
35128;SDS011;21301;43.626;10.580;2024-02-21T14:27:32;5.03;;;1.30;;
35128;SDS011;21301;43.626;10.580;2024-02-21T14:29:58;8.45;;;1.20;;